Time;durP1;ratioP1;P1;durP2;ratioP2;P2;SDS_P1;SDS_P2;PMS_P1;PMS_P2;Temp;Humidity;BMP_temperature;BMP_pressure;BME280_temperature;BME280_humidity;BME280_pressure;Samples;Min_cycle;Max_cycle;Signal;HPM_P1;HPM_P2
2024/04/18 00:01:02;;;;;;;4.32;2.40;;;5.80;99.90;;;;;;5331442;26;20052;-57
2024/04/18 00:03:30;;;;;;;4.05;2.55;;;5.80;99.90;;;;;;5339245;26;20083;-58
2024/04/18 00:05:57;;;;;;;4.80;2.95;;;5.80;99.90;;;;;;5338204;26;20053;-56
2024/04/18 00:08:24;;;;;;;3.97;2.80;;;5.80;99.90;;;;;;5332246;26;20421;-57
2024/04/18 00:10:54;;;;;;;3.88;2.67;;;5.80;99.90;;;;;;5327193;26;20001;-54
2024/04/18 00:13:21;;;;;;;;;;;5.80;99.90;;;;;;5330351;26;20015;-56
2024/04/18 00:15:48;;;;;;;3.70;2.58;;;5.80;99.90;;;;;;5337155;26;19925;-58
2024/04/18 00:18:15;;;;;;;4.80;3.30;;;5.70;99.90;;;;;;5341373;26;20033;-58
2024/04/18 00:20:43;;;;;;;4.70;3.33;;;5.60;99.90;;;;;;5390888;21;20023;-60
2024/04/18 00:23:10;;;;;;;5.05;2.53;;;5.60;99.90;;;;;;5305181;26;20064;-59
2024/04/18 00:25:37;;;;;;;3.78;2.97;;;5.60;99.90;;;;;;5304368;26;20009;-60
2024/04/18 00:28:04;;;;;;;3.30;2.65;;;5.60;99.90;;;;;;5309599;26;20020;-59
2024/04/18 00:30:31;;;;;;;8.10;2.70;;;5.60;99.90;;;;;;5307421;26;20028;-56
2024/04/18 00:32:57;;;;;;;3.58;2.83;;;5.60;99.90;;;;;;5307040;26;20013;-58
2024/04/18 00:35:24;;;;;;;3.75;2.55;;;5.60;99.90;;;;;;5306525;26;20272;-60
2024/04/18 00:37:51;;;;;;;3.55;2.83;;;5.60;99.90;;;;;;5310257;26;20016;-58
2024/04/18 00:40:18;;;;;;;4.53;2.80;;;5.60;99.90;;;;;;5307497;26;20018;-59
2024/04/18 00:42:45;;;;;;;3.67;2.75;;;5.60;99.90;;;;;;5308377;26;20002;-57
2024/04/18 00:45:12;;;;;;;3.55;2.92;;;5.60;99.90;;;;;;5307737;26;20047;-56
2024/04/18 00:47:39;;;;;;;5.18;2.75;;;5.70;99.90;;;;;;5306930;26;20006;-55
2024/04/18 00:50:07;;;;;;;2.92;2.38;;;5.60;99.90;;;;;;5309194;26;20013;-58
2024/04/18 00:52:34;;;;;;;4.15;2.60;;;5.70;99.90;;;;;;5319246;26;20097;-60
2024/04/18 00:55:03;;;;;;;2.70;2.38;;;5.70;99.90;;;;;;5309579;26;20010;-59
2024/04/18 00:57:32;;;;;;;3.03;2.30;;;5.60;99.90;;;;;;5307313;26;20006;-60
2024/04/18 00:59:59;;;;;;;3.05;2.55;;;5.50;99.90;;;;;;5307610;26;20037;-58
2024/04/18 01:02:29;;;;;;;3.55;2.78;;;5.50;99.90;;;;;;5308012;26;20029;-58
2024/04/18 01:04:57;;;;;;;4.38;2.50;;;5.50;99.90;;;;;;5343474;26;20015;-58
2024/04/18 01:07:24;;;;;;;2.97;2.50;;;5.40;99.90;;;;;;5305886;26;20021;-60
2024/04/18 01:09:51;;;;;;;4.07;2.88;;;5.40;99.90;;;;;;5305795;26;20343;-60
2024/04/18 01:12:18;;;;;;;3.13;2.78;;;5.40;99.90;;;;;;5305978;26;20052;-58
2024/04/18 01:14:45;;;;;;;7.43;2.83;;;5.30;99.90;;;;;;5310133;26;20001;-57
2024/04/18 01:17:12;;;;;;;5.53;3.13;;;5.30;99.90;;;;;;5338952;26;20005;-60
2024/04/18 01:19:39;;;;;;;6.97;3.60;;;5.30;99.90;;;;;;5306447;26;19998;-59
2024/04/18 01:22:05;;;;;;;5.57;2.65;;;5.40;99.90;;;;;;5302947;26;20048;-58
2024/04/18 01:24:32;;;;;;;5.07;2.90;;;5.50;99.90;;;;;;5304626;26;20460;-58
2024/04/18 01:27:00;;;;;;;3.45;2.75;;;5.50;99.90;;;;;;5305646;26;20049;-58
2024/04/18 01:29:27;;;;;;;3.80;2.85;;;5.60;99.90;;;;;;5307220;26;20079;-60
2024/04/18 01:31:54;;;;;;;4.53;2.92;;;5.60;99.90;;;;;;5313614;26;20526;-58
2024/04/18 01:34:20;;;;;;;4.82;2.90;;;5.60;99.90;;;;;;5308190;26;20005;-59
2024/04/18 01:36:48;;;;;;;4.03;2.65;;;5.60;99.90;;;;;;5307838;26;20009;-60
2024/04/18 01:39:15;;;;;;;6.30;2.92;;;5.60;99.90;;;;;;5310344;26;20752;-60
2024/04/18 01:41:42;;;;;;;5.97;3.00;;;5.60;99.90;;;;;;5308367;26;20005;-60
2024/04/18 01:44:11;;;;;;;3.67;2.65;;;5.50;99.90;;;;;;5307644;26;20017;-60
2024/04/18 01:46:38;;;;;;;3.10;2.80;;;5.50;99.90;;;;;;5310070;26;20002;-59
2024/04/18 01:49:05;;;;;;;6.35;3.05;;;5.40;99.90;;;;;;5305782;26;20006;-59
2024/04/18 01:51:32;;;;;;;3.53;3.13;;;5.40;99.90;;;;;;5314511;26;20417;-59
2024/04/18 01:53:59;;;;;;;3.35;2.70;;;5.50;99.90;;;;;;5312321;26;20005;-60
2024/04/18 01:56:25;;;;;;;3.83;2.95;;;5.40;99.90;;;;;;5309502;26;20020;-60
2024/04/18 01:58:52;;;;;;;4.40;2.67;;;5.40;99.90;;;;;;5313416;26;20017;-59
2024/04/18 02:01:24;;;;;;;3.13;2.63;;;5.50;99.90;;;;;;5312003;26;20009;-59
2024/04/18 02:03:51;;;;;;;4.03;2.78;;;5.50;99.90;;;;;;5313731;26;20021;-59
2024/04/18 02:06:18;;;;;;;3.85;2.70;;;5.50;99.90;;;;;;5319149;26;20064;-60
2024/04/18 02:08:45;;;;;;;5.65;2.60;;;5.50;99.90;;;;;;5309234;26;19998;-60
2024/04/18 02:11:12;;;;;;;4.75;2.42;;;5.60;99.90;;;;;;5304202;26;20016;-57
2024/04/18 02:13:39;;;;;;;6.93;2.55;;;5.60;99.90;;;;;;5313586;26;20092;-60
2024/04/18 02:16:06;;;;;;;4.13;2.95;;;5.60;99.90;;;;;;5318957;26;20001;-58
2024/04/18 02:18:33;;;;;;;3.50;2.50;;;5.60;99.90;;;;;;5310577;26;20001;-60
2024/04/18 02:21:00;;;;;;;2.42;2.17;;;5.60;99.90;;;;;;5310984;26;20013;-59
2024/04/18 02:23:28;;;;;;;2.58;2.20;;;5.60;99.90;;;;;;5311557;26;20024;-59
2024/04/18 02:25:55;;;;;;;3.80;2.20;;;5.50;99.90;;;;;;5315065;26;20002;-57
2024/04/18 02:28:21;;;;;;;4.22;2.30;;;5.50;99.90;;;;;;5313891;26;20010;-59
2024/04/18 02:30:48;;;;;;;3.92;2.53;;;5.40;99.90;;;;;;5303831;26;20005;-59
2024/04/18 02:33:16;;;;;;;5.43;2.70;;;5.40;99.90;;;;;;5306066;26;20009;-59
2024/04/18 02:35:47;;;;;;;3.03;2.30;;;5.50;99.90;;;;;;5315715;26;20009;-61
2024/04/18 02:38:13;;;;;;;3.70;2.22;;;5.50;99.90;;;;;;5317140;26;19997;-60
2024/04/18 02:40:40;;;;;;;2.50;1.77;;;5.50;99.90;;;;;;5312673;26;19997;-58
2024/04/18 02:43:07;;;;;;;2.40;2.20;;;5.40;99.90;;;;;;5312642;26;19997;-61
2024/04/18 02:45:34;;;;;;;1.83;1.60;;;5.50;99.90;;;;;;5311251;26;20016;-60
2024/04/18 02:48:01;;;;;;;3.63;1.88;;;5.50;99.90;;;;;;5309173;26;20501;-58
2024/04/18 02:50:28;;;;;;;1.70;1.60;;;5.60;99.90;;;;;;5309736;26;20018;-58
2024/04/18 02:52:54;;;;;;;1.98;1.70;;;5.60;99.90;;;;;;5312473;26;20398;-60
2024/04/18 02:55:21;;;;;;;2.40;1.70;;;5.70;99.90;;;;;;5311244;26;20013;-60
2024/04/18 02:57:48;;;;;;;3.13;1.65;;;5.70;99.90;;;;;;5305400;26;20723;-60
2024/04/18 03:00:15;;;;;;;2.13;1.80;;;5.70;99.90;;;;;;5307455;26;20700;-59
2024/04/18 03:02:42;;;;;;;2.78;2.13;;;5.60;99.90;;;;;;5307813;26;20013;-60
2024/04/18 03:05:08;;;;;;;2.70;1.90;;;5.70;99.90;;;;;;5314193;26;20406;-60
2024/04/18 03:07:35;;;;;;;2.20;2.00;;;5.70;99.90;;;;;;5309461;26;20166;-60
2024/04/18 03:10:02;;;;;;;2.58;2.10;;;5.70;99.90;;;;;;5309204;26;20025;-60
2024/04/18 03:12:29;;;;;;;3.60;2.28;;;5.70;99.90;;;;;;5316095;26;20012;-60
2024/04/18 03:14:56;;;;;;;3.35;2.90;;;5.70;99.90;;;;;;5310193;26;20001;-59
2024/04/18 03:17:23;;;;;;;2.80;2.60;;;5.70;99.90;;;;;;5304687;26;20335;-60
2024/04/18 03:19:50;;;;;;;3.03;2.72;;;5.70;99.90;;;;;;5311469;26;20002;-59
2024/04/18 03:22:17;;;;;;;4.47;3.45;;;5.70;99.90;;;;;;5305885;26;19998;-57
2024/04/18 03:24:44;;;;;;;5.22;3.40;;;5.60;99.90;;;;;;5303057;26;20061;-60
2024/04/18 03:27:10;;;;;;;4.57;3.42;;;5.60;99.90;;;;;;5304778;26;20049;-59
2024/04/18 03:29:37;;;;;;;4.15;3.53;;;5.50;99.90;;;;;;5296530;26;20009;-59
2024/04/18 03:32:04;;;;;;;3.95;3.55;;;5.50;99.90;;;;;;5307366;26;20020;-60
2024/04/18 03:34:31;;;;;;;3.97;3.28;;;5.40;99.90;;;;;;5313452;26;20449;-61
2024/04/18 03:36:58;;;;;;;3.63;3.30;;;5.40;99.90;;;;;;5306018;26;20001;-59
2024/04/18 03:39:28;;;;;;;4.47;3.85;;;5.40;99.90;;;;;;5312123;26;20020;-58
2024/04/18 03:41:55;;;;;;;4.72;3.95;;;5.40;99.90;;;;;;5307744;26;20005;-61
2024/04/18 03:44:21;;;;;;;4.53;3.90;;;5.40;99.90;;;;;;5305599;26;20005;-58
2024/04/18 03:46:48;;;;;;;5.03;3.55;;;5.40;99.90;;;;;;5315457;26;20024;-60
2024/04/18 03:49:15;;;;;;;4.00;3.70;;;5.40;99.90;;;;;;5308751;26;20006;-59
2024/04/18 03:51:42;;;;;;;3.63;3.33;;;5.50;99.90;;;;;;5305050;26;20537;-59
2024/04/18 03:54:09;;;;;;;4.43;3.70;;;5.50;99.90;;;;;;5307354;26;20009;-59
2024/04/18 03:56:36;;;;;;;4.40;3.85;;;5.40;99.90;;;;;;5309768;26;20016;-60
2024/04/18 03:59:02;;;;;;;4.28;3.88;;;5.40;99.90;;;;;;5312069;26;20020;-60
2024/04/18 04:01:29;;;;;;;4.03;3.65;;;5.40;99.90;;;;;;5310518;26;20096;-61
2024/04/18 04:03:56;;;;;;;4.82;3.92;;;5.40;99.90;;;;;;5304238;26;20076;-61
2024/04/18 04:06:24;;;;;;;5.20;3.65;;;5.30;99.90;;;;;;5310696;26;20024;-59
2024/04/18 04:08:51;;;;;;;4.80;4.40;;;5.20;99.90;;;;;;5308294;26;20581;-59
2024/04/18 04:11:18;;;;;;;5.13;4.63;;;5.20;99.90;;;;;;5310328;26;20009;-60
2024/04/18 04:13:45;;;;;;;5.13;4.63;;;5.30;99.90;;;;;;5314965;26;20013;-59
2024/04/18 04:16:12;;;;;;;7.30;4.90;;;5.30;99.90;;;;;;5309105;26;20017;-59
2024/04/18 04:18:39;;;;;;;5.40;4.88;;;5.30;99.90;;;;;;5304588;26;20002;-60
2024/04/18 04:21:07;;;;;;;5.30;4.80;;;5.20;99.90;;;;;;5307664;26;20002;-59
2024/04/18 04:23:35;;;;;;;6.03;4.88;;;5.20;99.90;;;;;;5309975;26;20018;-57
2024/04/18 04:26:02;;;;;;;5.88;4.50;;;5.10;99.90;;;;;;5313601;26;20016;-58
2024/04/18 04:28:29;;;;;;;6.22;5.15;;;5.10;99.90;;;;;;5301923;26;20013;-60
2024/04/18 04:30:56;;;;;;;4.88;4.47;;;5.20;99.90;;;;;;5307568;26;20021;-60
2024/04/18 04:33:27;;;;;;;7.25;5.60;;;5.10;99.90;;;;;;5309106;26;19997;-60
2024/04/18 04:35:54;;;;;;;9.48;7.32;;;5.20;99.90;;;;;;5304013;26;20558;-55
2024/04/18 04:38:21;;;;;;;5.70;5.15;;;5.30;99.90;;;;;;5308384;26;20013;-59
2024/04/18 04:40:48;;;;;;;4.93;4.45;;;5.30;99.90;;;;;;5307829;26;20247;-59
2024/04/18 04:43:15;;;;;;;4.30;3.83;;;5.30;99.90;;;;;;5305486;26;20006;-58
2024/04/18 04:45:41;;;;;;;4.97;4.53;;;5.30;99.90;;;;;;5305982;26;20020;-59
2024/04/18 04:48:08;;;;;;;8.85;4.10;;;5.30;99.90;;;;;;5305766;26;20005;-60
2024/04/18 04:50:40;;;;;;;4.05;3.65;;;5.30;99.90;;;;;;5304254;26;20045;-59
2024/04/18 04:53:07;;;;;;;3.97;3.38;;;5.30;99.90;;;;;;5306364;26;20018;-58
2024/04/18 04:55:34;;;;;;;3.83;3.25;;;5.30;99.90;;;;;;5303507;26;20079;-59
2024/04/18 04:58:01;;;;;;;4.15;3.75;;;5.40;99.90;;;;;;5304510;26;20013;-57
2024/04/18 05:00:28;;;;;;;4.32;3.70;;;5.40;99.90;;;;;;5304614;26;20623;-57
2024/04/18 05:02:55;;;;;;;4.18;3.40;;;5.40;99.90;;;;;;5307199;26;20541;-60
2024/04/18 05:05:22;;;;;;;4.18;3.63;;;5.50;99.90;;;;;;5313358;26;20799;-61
2024/04/18 05:07:50;;;;;;;5.53;3.42;;;5.50;99.90;;;;;;5306401;26;20016;-59
2024/04/18 05:10:20;;;;;;;5.32;3.65;;;5.30;99.90;;;;;;5306121;26;20193;-60
2024/04/18 05:12:51;;;;;;;7.03;4.28;;;5.20;99.90;;;;;;5313747;26;20001;-59
2024/04/18 05:15:18;;;;;;;4.55;4.05;;;5.20;99.90;;;;;;5306470;27;20341;-60
2024/04/18 05:17:45;;;;;;;4.53;3.63;;;5.00;99.90;;;;;;5306469;26;20020;-59
2024/04/18 05:20:12;;;;;;;4.43;3.25;;;4.70;99.90;;;;;;5308450;26;20006;-57
2024/04/18 05:22:38;;;;;;;4.22;2.67;;;4.40;99.90;;;;;;5309738;26;20010;-59
2024/04/18 05:25:05;;;;;;;4.45;3.25;;;4.20;99.90;;;;;;5307123;26;19998;-58
2024/04/18 05:27:42;;;;;;;3.67;3.00;;;4.20;99.90;;;;;;5308936;26;20014;-59
2024/04/18 05:32:54;;;;;;;5.57;3.58;;;4.30;99.90;;;;;;5316059;26;20009;-58
2024/04/18 05:35:21;;;;;;;6.25;4.32;;;4.30;99.90;;;;;;5305922;26;20001;-60
2024/04/18 05:37:48;;;;;;;8.18;4.18;;;4.40;99.90;;;;;;5317428;26;20012;-59
2024/04/18 05:40:15;;;;;;;5.30;3.90;;;4.50;99.90;;;;;;5310235;26;20080;-60
2024/04/18 05:42:42;;;;;;;6.20;4.30;;;4.50;99.90;;;;;;5309182;26;20010;-59
2024/04/18 05:45:09;;;;;;;5.90;4.10;;;4.50;99.90;;;;;;5314510;26;20009;-57
2024/04/18 05:47:36;;;;;;;8.13;4.50;;;4.50;99.90;;;;;;5310886;26;20624;-59
2024/04/18 05:50:03;;;;;;;6.07;4.57;;;4.60;99.90;;;;;;5308134;26;20665;-57
2024/04/18 05:52:29;;;;;;;16.00;11.70;;;4.60;99.90;;;;;;5310548;26;20084;-57
2024/04/18 05:54:56;;;;;;;11.57;8.45;;;4.60;99.90;;;;;;5308580;26;20001;-60
2024/04/18 05:57:23;;;;;;;8.40;6.18;;;4.70;99.90;;;;;;5306789;26;20002;-59
2024/04/18 05:59:54;;;;;;;9.98;6.43;;;4.80;99.90;;;;;;5303315;26;20017;-59
2024/04/18 06:02:21;;;;;;;7.45;5.28;;;4.90;99.90;;;;;;5303373;26;20061;-57
2024/04/18 06:04:48;;;;;;;7.32;5.63;;;5.00;99.90;;;;;;5312490;26;20009;-59
2024/04/18 06:07:15;;;;;;;7.30;5.30;;;5.00;99.90;;;;;;5303528;27;20017;-59
2024/04/18 06:09:42;;;;;;;6.47;5.07;;;5.10;99.90;;;;;;5303565;26;20060;-58
2024/04/18 06:12:09;;;;;;;7.38;5.43;;;5.10;99.90;;;;;;5304265;27;20048;-60
2024/04/18 06:14:35;;;;;;;5.65;4.78;;;5.20;99.90;;;;;;5304797;26;20002;-58
2024/04/18 06:17:02;;;;;;;6.38;4.53;;;5.20;99.90;;;;;;5306119;26;20017;-59
2024/04/18 06:19:29;;;;;;;6.00;4.47;;;5.30;99.90;;;;;;5306050;26;20080;-58
2024/04/18 06:21:56;;;;;;;6.97;4.88;;;5.30;99.90;;;;;;5393769;21;20011;-62
2024/04/18 06:24:23;;;;;;;5.57;4.43;;;5.30;99.90;;;;;;5407222;26;20003;-62
2024/04/18 06:26:50;;;;;;;9.60;4.68;;;5.40;99.90;;;;;;5410963;26;20007;-62
2024/04/18 06:29:16;;;;;;;7.85;4.32;;;5.60;99.90;;;;;;5413092;26;20665;-62
2024/04/18 06:31:43;;;;;;;6.25;4.65;;;5.60;99.90;;;;;;5416208;26;20057;-62
2024/04/18 06:34:10;;;;;;;4.50;4.03;;;5.80;99.90;;;;;;5411685;26;20456;-62
2024/04/18 06:36:37;;;;;;;5.88;4.57;;;5.90;99.90;;;;;;5409684;26;20010;-62
2024/04/18 06:39:06;;;;;;;6.63;4.40;;;6.00;99.90;;;;;;5408572;26;20019;-62
2024/04/18 06:41:37;;;;;;;6.38;4.55;;;6.20;99.90;;;;;;5410592;26;20023;-60
2024/04/18 06:44:04;;;;;;;6.55;4.45;;;6.30;99.90;;;;;;5411837;26;20451;-62
2024/04/18 06:46:31;;;;;;;10.10;4.40;;;6.40;99.90;;;;;;5414716;26;20451;-62
2024/04/18 06:49:02;;;;;;;6.07;4.25;;;6.50;99.90;;;;;;5413391;26;20698;-62
2024/04/18 06:51:30;;;;;;;7.18;4.82;;;6.50;99.90;;;;;;5410610;26;20054;-62
2024/04/18 06:53:57;;;;;;;4.80;4.25;;;6.70;99.90;;;;;;5410898;26;20080;-62
2024/04/18 06:56:24;;;;;;;6.35;4.22;;;6.60;99.90;;;;;;5407800;26;20011;-62
2024/04/18 06:58:50;;;;;;;6.03;4.65;;;6.60;99.90;;;;;;5411099;26;20000;-62
2024/04/18 07:01:17;;;;;;;6.13;4.80;;;6.60;99.90;;;;;;5410688;26;20522;-62
2024/04/18 07:03:44;;;;;;;6.65;4.90;;;6.60;99.90;;;;;;5412126;26;20008;-62
2024/04/18 07:06:11;;;;;;;7.18;4.68;;;6.70;99.90;;;;;;5408265;26;20039;-62
2024/04/18 07:08:38;;;;;;;5.05;4.43;;;6.90;99.90;;;;;;5418722;26;20023;-63
2024/04/18 07:11:05;;;;;;;4.32;3.58;;;7.00;99.90;;;;;;5409745;26;20693;-61
2024/04/18 07:13:32;;;;;;;6.10;3.80;;;6.80;99.90;;;;;;5410782;26;20031;-62
2024/04/18 07:16:04;;;;;;;6.32;4.57;;;6.70;99.90;;;;;;5412691;26;20004;-62
2024/04/18 07:18:32;;;;;;;9.40;5.15;;;6.60;99.90;;;;;;5405674;26;20064;-62
2024/04/18 07:20:59;;;;;;;7.75;4.82;;;6.80;99.90;;;;;;5410345;26;20022;-62
2024/04/18 07:23:26;;;;;;;6.22;3.60;;;7.10;99.90;;;;;;5412270;26;20471;-62
2024/04/18 07:25:53;;;;;;;6.65;4.70;;;7.30;99.90;;;;;;5409656;26;20399;-62
2024/04/18 07:28:19;;;;;;;6.88;4.43;;;7.50;99.90;;;;;;5410008;26;20000;-62
2024/04/18 07:30:46;;;;;;;5.60;4.63;;;7.90;99.90;;;;;;5411760;26;20011;-62
2024/04/18 07:33:13;;;;;;;6.82;5.03;;;8.20;99.90;;;;;;5412278;26;20055;-62
2024/04/18 07:35:40;;;;;;;6.72;4.70;;;8.50;99.90;;;;;;5409663;26;20069;-62
2024/04/18 07:38:07;;;;;;;6.85;5.28;;;8.10;99.90;;;;;;5410013;26;20008;-61
2024/04/18 07:40:34;;;;;;;6.55;4.65;;;8.20;99.90;;;;;;5410498;26;19999;-62
2024/04/18 07:43:00;;;;;;;4.75;4.25;;;8.10;99.90;;;;;;5411727;26;20006;-61
2024/04/18 07:45:28;;;;;;;5.90;4.18;;;7.80;99.90;;;;;;5410993;26;20007;-62
2024/04/18 07:47:55;;;;;;;5.13;3.95;;;7.70;99.90;;;;;;5409562;26;20014;-62
2024/04/18 07:50:22;;;;;;;7.82;5.43;;;7.60;99.90;;;;;;5409330;26;20013;-62
2024/04/18 07:52:49;;;;;;;6.28;4.63;;;7.50;99.90;;;;;;5411296;26;20092;-62
2024/04/18 07:55:30;;;;;;;;;;;7.90;99.90;;;;;;5409015;26;20141;-62
2024/04/18 07:57:57;;;;;;;4.50;4.10;;;8.10;99.90;;;;;;5409552;26;19957;-61
2024/04/18 08:00:24;;;;;;;6.15;4.57;;;7.90;99.90;;;;;;5407346;26;20011;-61
2024/04/18 08:02:52;;;;;;;7.63;5.75;;;7.70;99.90;;;;;;5415592;26;20032;-62
2024/04/18 08:05:22;;;;;;;5.75;5.05;;;7.70;99.90;;;;;;5408901;26;20495;-62
2024/04/18 08:07:53;;;;;;;5.10;4.40;;;8.10;99.90;;;;;;5407126;26;20011;-62
2024/04/18 08:10:24;;;;;;;4.80;3.70;;;7.90;99.90;;;;;;5413816;26;20035;-62
2024/04/18 08:13:02;;;;;;;4.10;3.40;;;7.90;99.90;;;;;;5409553;26;20008;-62
2024/04/18 08:15:43;;;;;;;5.22;3.80;;;7.80;99.90;;;;;;5408793;26;20003;-62
2024/04/18 08:18:16;;;;;;;3.55;3.25;;;7.90;99.90;;;;;;5408882;26;20003;-62
2024/04/18 08:20:43;;;;;;;4.50;3.08;;;7.60;99.90;;;;;;5408251;26;20004;-62
2024/04/18 08:23:10;;;;;;;4.55;3.53;;;7.40;99.90;;;;;;5408379;26;20092;-62
2024/04/18 08:25:38;;;;;;;3.80;3.28;;;7.50;99.90;;;;;;5408723;26;20034;-62
2024/04/18 08:28:05;;;;;;;4.72;4.13;;;7.60;99.90;;;;;;5408927;26;20519;-62
2024/04/18 08:30:32;;;;;;;4.85;3.97;;;8.10;99.90;;;;;;5409268;26;20361;-62
2024/04/18 08:32:59;;;;;;;4.43;4.03;;;8.20;99.90;;;;;;5409553;26;20007;-62
2024/04/18 08:35:26;;;;;;;4.50;3.28;;;8.40;99.90;;;;;;5409904;26;20359;-61
2024/04/18 08:37:53;;;;;;;4.57;3.42;;;8.30;99.90;;;;;;5408051;26;20000;-62
2024/04/18 08:40:20;;;;;;;6.38;3.45;;;8.30;99.90;;;;;;5409401;26;20402;-62
2024/04/18 08:42:47;;;;;;;4.25;3.08;;;7.90;99.90;;;;;;5408768;26;20330;-61
2024/04/18 08:45:14;;;;;;;4.15;2.97;;;7.40;99.90;;;;;;5411594;26;20000;-60
2024/04/18 08:47:41;;;;;;;5.65;3.95;;;7.50;99.90;;;;;;5410252;26;19995;-60
2024/04/18 08:50:11;;;;;;;3.65;2.83;;;7.90;99.90;;;;;;5408205;26;20003;-62
2024/04/18 08:52:40;;;;;;;5.70;3.57;;;8.10;99.90;;;;;;5408187;26;20007;-62
2024/04/18 08:55:06;;;;;;;4.15;2.50;;;8.00;99.90;;;;;;5408523;26;20246;-62
2024/04/18 08:57:44;;;;;;;6.47;3.80;;;7.70;99.90;;;;;;5404233;26;20015;-62
2024/04/18 09:00:12;;;;;;;4.32;3.60;;;7.80;99.90;;;;;;5405755;26;20451;-62
2024/04/18 09:02:40;;;;;;;4.10;3.70;;;7.70;99.90;;;;;;5413133;26;20680;-62
2024/04/18 09:05:07;;;;;;;6.30;3.65;;;7.60;99.90;;;;;;5409073;26;20520;-61
2024/04/18 09:07:34;;;;;;;5.53;4.35;;;7.40;99.90;;;;;;5408392;26;20022;-61
2024/04/18 09:10:06;;;;;;;5.50;4.57;;;7.20;99.90;;;;;;5408583;26;20009;-61
2024/04/18 09:12:34;;;;;;;4.22;3.58;;;7.40;99.90;;;;;;5407807;26;20072;-62
2024/04/18 09:15:02;;;;;;;5.00;4.07;;;7.40;99.90;;;;;;5408306;26;20080;-62
2024/04/18 09:17:30;;;;;;;4.70;3.95;;;7.50;99.90;;;;;;5408911;26;19996;-62
2024/04/18 09:19:57;;;;;;;4.10;3.63;;;7.90;99.90;;;;;;5412748;26;20000;-62
2024/04/18 09:22:23;;;;;;;3.67;3.25;;;8.20;99.90;;;;;;5408601;26;20011;-62
2024/04/18 09:24:50;;;;;;;5.28;3.72;;;8.60;99.90;;;;;;5408075;26;20000;-62
2024/04/18 09:27:17;;;;;;;5.28;3.42;;;8.80;99.90;;;;;;5407780;26;20007;-62
2024/04/18 09:29:44;;;;;;;3.83;3.08;;;9.50;99.90;;;;;;5407319;26;20372;-62
2024/04/18 09:32:14;;;;;;;5.03;3.17;;;9.50;99.90;;;;;;5408014;26;19996;-62
2024/04/18 09:34:47;;;;;;;3.92;3.08;;;9.20;99.90;;;;;;5407482;26;20030;-62
2024/04/18 09:37:15;;;;;;;4.50;3.00;;;9.20;99.90;;;;;;5407837;26;20049;-62
2024/04/18 09:39:44;;;;;;;3.03;2.83;;;9.10;99.90;;;;;;5407916;26;20018;-62
2024/04/18 09:42:29;;;;;;;4.20;3.40;;;9.60;99.90;;;;;;5407853;26;20011;-62
2024/04/18 09:45:02;;;;;;;4.28;3.10;;;10.10;99.90;;;;;;5407427;26;20077;-62
2024/04/18 09:47:32;;;;;;;2.97;2.42;;;10.00;99.90;;;;;;5409950;26;20014;-62
2024/04/18 09:49:59;;;;;;;3.35;2.60;;;10.00;99.90;;;;;;5409772;26;20657;-62
2024/04/18 09:52:26;;;;;;;2.97;2.67;;;10.30;99.90;;;;;;5411185;26;20369;-62
2024/04/18 09:54:55;;;;;;;5.05;2.83;;;10.10;99.90;;;;;;5413171;26;19996;-62
2024/04/18 09:57:23;;;;;;;3.13;2.53;;;10.00;99.90;;;;;;5414817;26;20003;-62
2024/04/18 09:59:52;;;;;;;5.20;3.08;;;9.80;99.90;;;;;;5411121;26;20399;-62
2024/04/18 10:02:21;;;;;;;2.88;2.60;;;9.90;99.90;;;;;;5411736;26;20011;-62
2024/04/18 10:04:49;;;;;;;3.10;2.80;;;9.70;99.90;;;;;;5411300;26;20012;-62
2024/04/18 10:07:20;;;;;;;3.83;2.78;;;9.80;99.90;;;;;;5415847;26;20578;-62
2024/04/18 10:09:48;;;;;;;4.82;2.72;;;10.00;99.90;;;;;;5413969;26;20171;-62
2024/04/18 10:12:15;;;;;;;2.88;2.58;;;9.20;99.90;;;;;;5414076;26;20019;-62
2024/04/18 10:14:42;;;;;;;3.70;2.58;;;8.90;99.90;;;;;;5412133;26;20417;-62
2024/04/18 10:17:24;;;;;;;2.83;2.53;;;9.00;99.90;;;;;;5410569;26;20003;-61
2024/04/18 10:19:53;;;;;;;3.22;2.55;;;8.50;99.90;;;;;;5411229;26;20068;-62
2024/04/18 10:22:23;;;;;;;4.80;2.42;;;8.50;99.90;;;;;;5411348;26;20471;-62
2024/04/18 10:24:54;;;;;;;3.55;2.75;;;8.40;99.90;;;;;;5409655;26;20003;-62
2024/04/18 10:27:22;;;;;;;2.85;2.13;;;8.10;99.90;;;;;;5406131;26;20011;-62
2024/04/18 10:29:57;;;;;;;2.70;2.33;;;7.50;99.90;;;;;;5410927;26;20004;-62
2024/04/18 10:32:27;;;;;;;3.67;2.40;;;6.90;99.90;;;;;;5410031;26;20405;-60
2024/04/18 10:34:54;;;;;;;;;;;6.70;99.90;;;;;;5415343;26;19999;-62
2024/04/18 10:37:22;;;;;;;3.63;3.20;;;6.50;99.90;;;;;;5410406;26;20125;-62
2024/04/18 10:39:52;;;;;;;3.80;3.17;;;6.40;99.90;;;;;;5410528;26;20014;-62
2024/04/18 10:42:20;;;;;;;3.25;2.35;;;6.30;99.90;;;;;;5410412;26;20022;-61
2024/04/18 10:44:49;;;;;;;2.72;2.40;;;6.30;99.90;;;;;;5410393;26;19999;-62
2024/04/18 10:47:20;;;;;;;2.88;2.50;;;6.40;99.90;;;;;;5411123;26;20579;-62
2024/04/18 10:49:47;;;;;;;3.17;2.88;;;6.90;99.90;;;;;;5409188;26;20007;-62
2024/04/18 10:52:18;;;;;;;5.22;3.00;;;7.30;99.90;;;;;;5410613;26;20014;-61
2024/04/18 10:54:48;;;;;;;5.72;3.45;;;7.50;99.90;;;;;;5413808;26;20035;-62
2024/04/18 10:57:14;;;;;;;5.15;3.85;;;7.70;99.90;;;;;;5409929;26;20073;-62
2024/04/18 10:59:46;;;;;;;3.95;3.53;;;7.80;99.90;;;;;;5410140;26;20476;-62
2024/04/18 11:02:14;;;;;;;4.90;3.75;;;7.60;99.90;;;;;;5410702;26;20065;-62
2024/04/18 11:04:41;;;;;;;4.43;3.88;;;7.40;99.90;;;;;;5410527;26;20668;-62
2024/04/18 11:07:08;;;;;;;3.92;3.53;;;7.80;99.90;;;;;;5409888;26;20010;-62
2024/04/18 11:09:39;;;;;;;4.55;4.00;;;8.20;99.90;;;;;;5410176;26;20004;-62
2024/04/18 11:12:06;;;;;;;3.75;3.45;;;8.60;99.90;;;;;;5410279;26;19999;-62
2024/04/18 11:14:34;;;;;;;4.82;3.88;;;9.00;99.90;;;;;;5412139;26;20015;-62
2024/04/18 11:17:00;;;;;;;9.13;4.60;;;9.40;99.90;;;;;;5409787;26;20003;-62
2024/04/18 11:19:32;;;;;;;4.55;3.30;;;10.10;99.90;;;;;;5410201;26;20000;-62
2024/04/18 11:22:00;;;;;;;3.08;2.78;;;10.60;99.90;;;;;;5410094;26;20332;-62
2024/04/18 11:24:27;;;;;;;4.65;2.85;;;10.30;99.90;;;;;;5409750;26;20004;-62
2024/04/18 11:26:54;;;;;;;4.35;3.50;;;9.80;99.90;;;;;;5409298;26;20039;-60
2024/04/18 11:29:27;;;;;;;4.00;3.60;;;9.30;99.90;;;;;;5410082;26;20003;-61
2024/04/18 11:32:03;;;;;;;3.58;3.00;;;9.60;99.90;;;;;;5409511;26;20040;-62
2024/04/18 11:34:30;;;;;;;3.78;3.08;;;9.50;99.90;;;;;;5409179;26;19999;-62
2024/04/18 11:36:57;;;;;;;3.67;2.70;;;9.40;99.90;;;;;;5409398;26;20503;-62
2024/04/18 11:39:27;;;;;;;3.42;2.70;;;9.60;99.90;;;;;;5409117;26;20080;-61
2024/04/18 11:41:54;;;;;;;2.30;2.10;;;9.80;99.90;;;;;;5408054;26;20014;-63
2024/04/18 11:44:21;;;;;;;2.97;2.50;;;9.80;99.90;;;;;;5409079;26;20399;-62
2024/04/18 11:46:50;;;;;;;3.20;2.30;;;10.40;99.90;;;;;;5409574;26;19995;-61
2024/04/18 11:49:17;;;;;;;2.25;2.05;;;10.70;99.90;;;;;;5409581;26;20054;-62
2024/04/18 11:51:44;;;;;;;2.90;2.40;;;10.10;99.90;;;;;;5411001;26;20023;-62
2024/04/18 11:54:11;;;;;;;1.92;1.83;;;10.10;99.90;;;;;;5411740;26;20068;-62
2024/04/18 11:56:38;;;;;;;1.73;1.60;;;9.60;99.90;;;;;;5409771;26;20072;-62
2024/04/18 11:59:04;;;;;;;1.17;1.08;;;9.40;99.90;;;;;;5409300;26;20008;-62
2024/04/18 12:01:31;;;;;;;2.05;1.40;;;9.10;99.90;;;;;;5410074;26;19995;-61
2024/04/18 12:03:58;;;;;;;2.13;1.30;;;9.40;99.90;;;;;;5409618;26;20004;-62
2024/04/18 12:06:25;;;;;;;1.00;1.00;;;9.40;99.90;;;;;;5409926;26;20036;-62
2024/04/18 12:08:52;;;;;;;1.38;1.13;;;9.60;99.90;;;;;;5411459;26;20016;-62
2024/04/18 12:11:21;;;;;;;1.58;1.17;;;9.90;99.90;;;;;;5410585;26;20040;-62
2024/04/18 12:13:48;;;;;;;0.50;0.50;;;9.60;99.90;;;;;;5408979;26;20061;-62
2024/04/18 12:16:15;;;;;;;1.15;1.02;;;9.60;99.90;;;;;;5409124;26;19999;-62
2024/04/18 12:18:42;;;;;;;1.17;1.08;;;9.30;99.90;;;;;;5408840;26;20003;-62
2024/04/18 12:21:08;;;;;;;1.45;1.35;;;9.00;99.90;;;;;;5408732;26;20003;-62
2024/04/18 12:23:42;;;;;;;2.90;1.48;;;8.60;99.90;;;;;;5409315;26;20043;-62
2024/04/18 12:26:12;;;;;;;1.88;1.55;;;8.50;99.90;;;;;;5409008;26;19999;-62
2024/04/18 12:28:38;;;;;;;3.92;1.50;;;8.80;99.90;;;;;;5409705;26;20004;-62
2024/04/18 12:31:05;;;;;;;1.70;1.60;;;8.90;99.90;;;;;;5408538;26;20018;-62
2024/04/18 12:33:32;;;;;;;2.72;1.70;;;8.70;99.90;;;;;;5409570;26;19999;-62
2024/04/18 12:35:59;;;;;;;2.13;2.03;;;9.20;99.90;;;;;;5413904;26;20610;-62
2024/04/18 12:38:26;;;;;;;1.77;1.67;;;9.70;99.90;;;;;;5409612;26;20038;-61
2024/04/18 12:40:53;;;;;;;2.00;1.80;;;10.60;99.90;;;;;;5409303;26;20073;-62
2024/04/18 12:43:19;;;;;;;1.70;1.60;;;10.60;99.90;;;;;;5410941;26;20011;-62
2024/04/18 12:45:46;;;;;;;1.80;1.70;;;10.40;99.90;;;;;;5408852;26;20317;-62
2024/04/18 12:48:13;;;;;;;4.53;2.03;;;10.70;99.90;;;;;;5408336;26;20661;-62
2024/04/18 12:50:40;;;;;;;1.85;1.70;;;11.20;99.90;;;;;;5409616;26;20484;-62
2024/04/18 12:53:07;;;;;;;1.73;1.63;;;11.30;99.90;;;;;;5407940;26;20092;-62
2024/04/18 12:55:35;;;;;;;2.38;1.67;;;11.10;99.90;;;;;;5408912;26;20000;-62
2024/04/18 12:58:02;;;;;;;3.20;2.13;;;10.70;99.90;;;;;;5407683;26;20000;-62
2024/04/18 13:00:29;;;;;;;2.90;2.40;;;10.30;99.90;;;;;;5408987;26;20015;-62
2024/04/18 13:02:56;;;;;;;3.08;2.17;;;9.90;99.90;;;;;;5408377;26;19999;-62